Beland, Oklahoma
Current Conditions -  °F | °C
As of 3:53 PM on Sunday 23 Nov 2014 (Local Time) from KMKO Reporting Station
Few Clouds Few Clouds  
Wind Chill: 67°   Ceiling: Unl
Heat Index: 67°   Visibility: 10mi
Dew Point: 52°   Wind: 9mph
Humidity: 59%   Direction: 220°SW
Pressure: 29.31"   Gusts: NA
Location:  35.6818°N, 95.3578°W
Report Text: KMKO 232153Z AUTO 22008KT 10SM FEW070 19/11 A2931 RMK AO2 SLP922 T01940111
Loading
Personal Weather Stations






























Interactive Weather Map New forecast layout! Learn more

10-Day Weather Forecast

Advertisements
Track Severe Weather on mobile